Departure
Bahrain International Airport
Manama, BH
cloud Weather
- Wind
- 330° / 17 kt
- Visibility
- 6 SM
- Ceiling
- CAVOK
- Temp / Dew
- 37°C / 25°C
- Altimeter
- 29.59 inHg
Obs: 2026-09-01T04:00:00.000Z
Raw METAR
METAR OBBI 010400Z 33017KT CAVOK 37/25 Q1002 NOSIG
route Route
Departure
Manama, BH
Obs: 2026-09-01T04:00:00.000Z
METAR OBBI 010400Z 33017KT CAVOK 37/25 Q1002 NOSIG
Arrival
No data available for KWI.
| Airline | Flights shown |
|---|---|
| Jazeera Airways | 33 |
| Gulf Air | 9 |
| Kuwait Airways | 8 |
| Date | Flight | Aircraft | Takeoff | Landing | Duration | Arr Δ |
|---|---|---|---|---|---|---|
| 2026-07-26 | GFA215 | 89405A | Jul 26, 13:55 UTC | Jul 26, 14:05 UTC | 10m | - |
| 2026-07-26 | KAC614 | 706068 | Jul 26, 09:30 UTC | Jul 26, 09:45 UTC | 15m | - |
| 2026-07-25 | JZR125 | 706135 | Jul 25, 22:45 UTC | Jul 26, 14:15 UTC | 15h 31m | - |
| 2026-07-25 | GFA215 | 89405C | Jul 25, 14:10 UTC | Jul 25, 14:25 UTC | 15m | - |
| 2026-07-25 | JZR125 | 706132 | Jul 25, 08:55 UTC | Jul 25, 14:10 UTC | 5h 15m | - |
| 2026-07-24 | GFA215 | 89405F | Jul 24, 14:10 UTC | Jul 24, 14:20 UTC | 10m | - |
| 2026-07-24 | JZR125 | 70620D | Jul 24, 09:55 UTC | Jul 24, 14:30 UTC | 4h 35m | - |
| 2026-07-23 | GFA215 | 8940DB | Jul 23, 14:05 UTC | Jul 23, 14:15 UTC | 10m | - |
| 2026-07-23 | JZR125 | 706134 | Jul 23, 09:35 UTC | Jul 23, 14:10 UTC | 4h 35m | - |
| 2026-07-22 | GFA215 | 8940DB | Jul 22, 14:00 UTC | Jul 22, 14:20 UTC | 20m | - |
| 2026-07-22 | JZR125 | 706134 | Jul 22, 13:45 UTC | Jul 22, 14:45 UTC | 1h 0m | - |
| 2026-07-21 | JZR125 | 706134 | Jul 21, 16:20 UTC | Jul 22, 14:45 UTC | 22h 25m | - |
| 2026-07-21 | GFA215 | 89409C | Jul 21, 14:10 UTC | Jul 21, 14:25 UTC | 15m | - |
| 2026-07-21 | JZR125 | 706134 | Jul 21, 13:20 UTC | Jul 21, 14:15 UTC | 55m | - |
| 2026-07-20 | GFA215 | 8940D3 | Jul 20, 17:00 UTC | Jul 20, 17:15 UTC | 15m | - |
| 2026-07-20 | JZR125 | 70620F | Jul 20, 13:10 UTC | Jul 20, 14:20 UTC | 1h 10m | - |
| 2026-07-18 | GFA215 | 8940C5 | Jul 18, 14:05 UTC | Jul 18, 14:30 UTC | 25m | - |
| 2026-07-17 | GFA215 | 89405F | Jul 17, 14:04 UTC | Jul 17, 14:24 UTC | 20m | - |
| 2026-07-17 | KAC614 | 706065 | Jul 17, 09:55 UTC | Jul 17, 10:10 UTC | 15m | - |
| 2026-07-01 | JZR125 | 70612C | Jul 1, 13:10 UTC | Jul 1, 14:05 UTC | 55m | - |
| 2026-06-30 | JZR125 | 70620E | Jun 30, 13:15 UTC | Jun 30, 14:15 UTC | 1h 0m | - |
| 2026-06-29 | KAC614 | 706074 | Jun 29, 09:40 UTC | Jun 29, 09:54 UTC | 15m | - |
| 2026-06-28 | JZR125 | 706133 | Jun 28, 23:14 UTC | Jun 29, 13:44 UTC | 14h 30m | - |
| 2026-06-28 | JZR125 | 706136 | Jun 28, 12:55 UTC | Jun 28, 13:55 UTC | 1h 0m | - |
| 2026-06-27 | JZR125 | 706136 | Jun 27, 13:35 UTC | Jun 28, 13:29 UTC | 23h 55m | - |
| 2026-06-27 | JZR125 | 70620C | Jun 27, 12:50 UTC | Jun 27, 13:55 UTC | 1h 5m | - |
| 2026-06-26 | JZR125 | 706134 | Jun 26, 08:24 UTC | Jun 26, 13:49 UTC | 5h 25m | - |
| 2026-06-25 | JZR125 | 70612D | Jun 25, 08:24 UTC | Jun 25, 13:59 UTC | 5h 35m | - |
| 2026-06-24 | JZR125 | 706134 | Jun 24, 12:54 UTC | Jun 24, 14:00 UTC | 1h 5m | - |
| 2026-06-23 | JZR125 | 706202 | Jun 23, 12:45 UTC | Jun 23, 13:55 UTC | 1h 10m | - |
| 2026-06-22 | JZR125 | 70620F | Jun 22, 12:49 UTC | Jun 22, 13:54 UTC | 1h 5m | - |
| 2026-06-22 | KAC614 | 706065 | Jun 22, 09:34 UTC | Jun 22, 09:49 UTC | 15m | - |
| 2026-06-21 | JZR125 | 70620E | Jun 21, 12:55 UTC | Jun 21, 13:59 UTC | 1h 5m | - |
| 2026-06-20 | JZR125 | 70620C | Jun 20, 12:54 UTC | Jun 20, 13:59 UTC | 1h 5m | - |
| 2026-06-18 | JZR125 | 706202 | Jun 18, 13:05 UTC | Jun 18, 14:15 UTC | 1h 10m | - |
| 2026-06-16 | JZR125 | 706136 | Jun 16, 12:55 UTC | Jun 16, 14:00 UTC | 1h 5m | - |
| 2026-06-15 | JZR125 | 706133 | Jun 15, 12:55 UTC | Jun 15, 13:54 UTC | 1h 0m | - |
| 2026-06-15 | KAC614 | 70606A | Jun 15, 09:40 UTC | Jun 15, 09:49 UTC | 10m | - |
| 2026-06-14 | JZR125 | 706133 | Jun 14, 14:50 UTC | Jun 15, 13:54 UTC | 23h 4m | - |
| 2026-06-14 | JZR125 | 70620D | Jun 14, 13:10 UTC | Jun 14, 14:15 UTC | 1h 5m | - |
| 2026-06-14 | KAC614 | 70606A | Jun 14, 09:35 UTC | Jun 14, 09:50 UTC | 15m | - |
| 2026-06-13 | JZR125 | 706136 | Jun 13, 08:00 UTC | Jun 13, 14:10 UTC | 6h 10m | - |
| 2026-06-12 | KAC614 | 706068 | Jun 12, 12:35 UTC | Jun 12, 12:50 UTC | 15m | - |
| 2026-06-12 | JZR125 | 706133 | Jun 12, 06:50 UTC | Jun 12, 14:05 UTC | 7h 15m | - |
| 2026-06-11 | JZR125 | 706133 | Jun 11, 14:15 UTC | Jun 11, 15:20 UTC | 1h 5m | - |
| 2026-06-10 | JZR125 | 706133 | Jun 10, 15:55 UTC | Jun 11, 14:45 UTC | 22h 50m | - |
| 2026-06-09 | JZR125 | 70620C | Jun 9, 12:55 UTC | Jun 9, 14:05 UTC | 1h 10m | - |
| 2026-06-08 | KAC614 | 706069 | Jun 8, 09:25 UTC | Jun 8, 09:40 UTC | 15m | - |
| 2026-06-08 | JZR125 | 706202 | Jun 8, 06:35 UTC | Jun 8, 14:00 UTC | 7h 25m | - |
| 2026-06-07 | JZR125 | 706136 | Jun 7, 02:30 UTC | Jun 7, 14:05 UTC | 11h 35m | - |